sensor_id;sensor_type;location;lat;lon;timestamp;temperature;humidity
24470;DHT22;12635;50.852;5.676;2023-04-12T00:01:25;8.60;99.90
24470;DHT22;12635;50.852;5.676;2023-04-12T00:03:52;8.60;99.90
24470;DHT22;12635;50.852;5.676;2023-04-12T00:06:19;8.60;99.90
24470;DHT22;12635;50.852;5.676;2023-04-12T00:08:53;8.60;99.90
24470;DHT22;12635;50.852;5.676;2023-04-12T00:11:20;8.60;99.90
24470;DHT22;12635;50.852;5.676;2023-04-12T00:13:47;8.60;99.90
24470;DHT22;12635;50.852;5.676;2023-04-12T00:16:14;8.50;99.90
24470;DHT22;12635;50.852;5.676;2023-04-12T00:18:40;8.50;99.90
24470;DHT22;12635;50.852;5.676;2023-04-12T00:21:10;8.50;99.90
24470;DHT22;12635;50.852;5.676;2023-04-12T00:23:37;8.50;99.90
24470;DHT22;12635;50.852;5.676;2023-04-12T00:26:06;8.50;99.90
24470;DHT22;12635;50.852;5.676;2023-04-12T00:28:32;8.50;99.90
24470;DHT22;12635;50.852;5.676;2023-04-12T00:30:59;8.50;99.90
24470;DHT22;12635;50.852;5.676;2023-04-12T00:33:26;8.50;99.90
24470;DHT22;12635;50.852;5.676;2023-04-12T00:35:53;8.60;99.90
24470;DHT22;12635;50.852;5.676;2023-04-12T00:38:20;8.60;99.90
24470;DHT22;12635;50.852;5.676;2023-04-12T00:40:47;8.60;99.90
24470;DHT22;12635;50.852;5.676;2023-04-12T00:43:15;8.60;99.90
24470;DHT22;12635;50.852;5.676;2023-04-12T00:45:43;8.70;99.90
24470;DHT22;12635;50.852;5.676;2023-04-12T00:48:10;8.60;99.90
24470;DHT22;12635;50.852;5.676;2023-04-12T00:50:37;8.60;99.90
24470;DHT22;12635;50.852;5.676;2023-04-12T00:53:09;8.70;99.90
24470;DHT22;12635;50.852;5.676;2023-04-12T00:55:37;8.70;99.90
24470;DHT22;12635;50.852;5.676;2023-04-12T00:58:05;8.70;99.90
24470;DHT22;12635;50.852;5.676;2023-04-12T01:00:33;8.80;99.90
24470;DHT22;12635;50.852;5.676;2023-04-12T01:03:00;8.80;99.90
24470;DHT22;12635;50.852;5.676;2023-04-12T01:05:29;8.80;99.90
24470;DHT22;12635;50.852;5.676;2023-04-12T01:08:01;8.80;99.90
24470;DHT22;12635;50.852;5.676;2023-04-12T01:10:32;8.80;99.90
24470;DHT22;12635;50.852;5.676;2023-04-12T01:13:04;8.80;99.90
24470;DHT22;12635;50.852;5.676;2023-04-12T01:15:38;8.80;99.90
24470;DHT22;12635;50.852;5.676;2023-04-12T01:18:07;8.80;99.90
24470;DHT22;12635;50.852;5.676;2023-04-12T01:20:36;8.80;99.90
24470;DHT22;12635;50.852;5.676;2023-04-12T01:23:14;8.70;99.90
24470;DHT22;12635;50.852;5.676;2023-04-12T01:25:47;8.70;99.90
24470;DHT22;12635;50.852;5.676;2023-04-12T01:28:21;8.70;99.90
24470;DHT22;12635;50.852;5.676;2023-04-12T01:30:48;8.60;99.90
24470;DHT22;12635;50.852;5.676;2023-04-12T01:33:16;8.60;99.90
24470;DHT22;12635;50.852;5.676;2023-04-12T01:35:43;8.70;99.90
24470;DHT22;12635;50.852;5.676;2023-04-12T01:38:10;8.70;99.90
24470;DHT22;12635;50.852;5.676;2023-04-12T01:40:37;8.70;99.90
24470;DHT22;12635;50.852;5.676;2023-04-12T01:43:07;8.70;99.90
24470;DHT22;12635;50.852;5.676;2023-04-12T01:45:36;8.60;99.90
24470;DHT22;12635;50.852;5.676;2023-04-12T01:48:03;8.60;99.90
24470;DHT22;12635;50.852;5.676;2023-04-12T01:50:33;8.50;99.90
24470;DHT22;12635;50.852;5.676;2023-04-12T01:53:04;8.50;99.90
24470;DHT22;12635;50.852;5.676;2023-04-12T01:55:33;8.50;99.90
24470;DHT22;12635;50.852;5.676;2023-04-12T01:58:02;8.50;99.90
24470;DHT22;12635;50.852;5.676;2023-04-12T02:00:30;8.40;99.90
24470;DHT22;12635;50.852;5.676;2023-04-12T02:02:59;8.40;99.90
24470;DHT22;12635;50.852;5.676;2023-04-12T02:05:26;8.30;99.90
24470;DHT22;12635;50.852;5.676;2023-04-12T02:07:52;8.30;99.90
24470;DHT22;12635;50.852;5.676;2023-04-12T02:10:26;8.20;99.90
24470;DHT22;12635;50.852;5.676;2023-04-12T02:12:53;8.20;99.90
24470;DHT22;12635;50.852;5.676;2023-04-12T02:15:21;8.20;99.90
24470;DHT22;12635;50.852;5.676;2023-04-12T02:17:47;8.10;99.90
24470;DHT22;12635;50.852;5.676;2023-04-12T02:20:20;8.10;99.90
24470;DHT22;12635;50.852;5.676;2023-04-12T02:22:47;8.00;99.90
24470;DHT22;12635;50.852;5.676;2023-04-12T02:25:14;8.10;99.90
24470;DHT22;12635;50.852;5.676;2023-04-12T02:27:42;8.10;99.90
24470;DHT22;12635;50.852;5.676;2023-04-12T02:30:09;8.10;99.90
24470;DHT22;12635;50.852;5.676;2023-04-12T02:32:36;8.10;99.90
24470;DHT22;12635;50.852;5.676;2023-04-12T02:35:08;8.20;99.90
24470;DHT22;12635;50.852;5.676;2023-04-12T02:37:37;8.20;99.90
24470;DHT22;12635;50.852;5.676;2023-04-12T02:40:05;8.20;99.90
24470;DHT22;12635;50.852;5.676;2023-04-12T02:42:34;8.20;99.90
24470;DHT22;12635;50.852;5.676;2023-04-12T02:45:01;8.20;99.90
24470;DHT22;12635;50.852;5.676;2023-04-12T02:47:28;8.30;99.90
24470;DHT22;12635;50.852;5.676;2023-04-12T02:49:55;8.30;99.90
24470;DHT22;12635;50.852;5.676;2023-04-12T02:52:22;8.30;99.90
24470;DHT22;12635;50.852;5.676;2023-04-12T02:54:50;8.30;99.90
24470;DHT22;12635;50.852;5.676;2023-04-12T02:57:17;8.30;99.90
24470;DHT22;12635;50.852;5.676;2023-04-12T02:59:46;8.30;99.90
24470;DHT22;12635;50.852;5.676;2023-04-12T03:02:13;8.30;99.90
24470;DHT22;12635;50.852;5.676;2023-04-12T03:04:40;8.30;99.90
24470;DHT22;12635;50.852;5.676;2023-04-12T03:07:11;8.20;99.90
24470;DHT22;12635;50.852;5.676;2023-04-12T03:09:38;8.30;99.90
24470;DHT22;12635;50.852;5.676;2023-04-12T03:12:08;8.30;99.90
24470;DHT22;12635;50.852;5.676;2023-04-12T03:14:35;8.30;99.90
24470;DHT22;12635;50.852;5.676;2023-04-12T03:17:02;8.20;99.90
24470;DHT22;12635;50.852;5.676;2023-04-12T03:19:28;8.20;99.90
24470;DHT22;12635;50.852;5.676;2023-04-12T03:21:57;8.20;99.90
24470;DHT22;12635;50.852;5.676;2023-04-12T03:24:24;8.20;99.90
24470;DHT22;12635;50.852;5.676;2023-04-12T03:26:51;8.20;99.90
24470;DHT22;12635;50.852;5.676;2023-04-12T03:29:19;8.20;99.90
24470;DHT22;12635;50.852;5.676;2023-04-12T03:31:46;8.20;99.90
24470;DHT22;12635;50.852;5.676;2023-04-12T03:34:13;8.20;99.90
24470;DHT22;12635;50.852;5.676;2023-04-12T03:36:40;8.20;99.90
24470;DHT22;12635;50.852;5.676;2023-04-12T03:39:07;8.20;99.90
24470;DHT22;12635;50.852;5.676;2023-04-12T03:41:34;8.20;99.90
24470;DHT22;12635;50.852;5.676;2023-04-12T03:44:01;8.20;99.90
24470;DHT22;12635;50.852;5.676;2023-04-12T03:46:29;8.10;99.90
24470;DHT22;12635;50.852;5.676;2023-04-12T03:48:56;8.10;99.90
24470;DHT22;12635;50.852;5.676;2023-04-12T03:51:23;8.10;99.90
24470;DHT22;12635;50.852;5.676;2023-04-12T03:53:51;8.10;99.90
24470;DHT22;12635;50.852;5.676;2023-04-12T03:56:18;8.10;99.90
24470;DHT22;12635;50.852;5.676;2023-04-12T03:58:45;8.10;99.90
24470;DHT22;12635;50.852;5.676;2023-04-12T04:01:12;8.10;99.90
24470;DHT22;12635;50.852;5.676;2023-04-12T04:03:40;8.10;99.90
24470;DHT22;12635;50.852;5.676;2023-04-12T04:06:09;8.10;99.90
24470;DHT22;12635;50.852;5.676;2023-04-12T04:08:36;8.10;99.90
24470;DHT22;12635;50.852;5.676;2023-04-12T04:11:03;8.10;99.90
24470;DHT22;12635;50.852;5.676;2023-04-12T04:13:30;8.10;99.90
24470;DHT22;12635;50.852;5.676;2023-04-12T04:15:58;8.10;99.90
24470;DHT22;12635;50.852;5.676;2023-04-12T04:18:25;8.10;99.90
24470;DHT22;12635;50.852;5.676;2023-04-12T04:20:53;8.10;99.90
24470;DHT22;12635;50.852;5.676;2023-04-12T04:23:20;8.10;99.90
24470;DHT22;12635;50.852;5.676;2023-04-12T04:25:47;8.10;99.90
24470;DHT22;12635;50.852;5.676;2023-04-12T04:28:15;8.10;99.90
24470;DHT22;12635;50.852;5.676;2023-04-12T04:30:42;8.10;99.90
24470;DHT22;12635;50.852;5.676;2023-04-12T04:33:10;8.20;99.90
24470;DHT22;12635;50.852;5.676;2023-04-12T04:35:38;8.10;99.90
24470;DHT22;12635;50.852;5.676;2023-04-12T04:38:06;8.10;99.90
24470;DHT22;12635;50.852;5.676;2023-04-12T04:40:35;8.10;99.90
24470;DHT22;12635;50.852;5.676;2023-04-12T04:43:02;8.10;99.90
24470;DHT22;12635;50.852;5.676;2023-04-12T04:45:29;8.10;99.90
24470;DHT22;12635;50.852;5.676;2023-04-12T04:47:56;8.10;99.90
24470;DHT22;12635;50.852;5.676;2023-04-12T04:50:23;8.00;99.90
24470;DHT22;12635;50.852;5.676;2023-04-12T04:52:51;8.10;99.90
24470;DHT22;12635;50.852;5.676;2023-04-12T04:55:19;8.10;99.90
24470;DHT22;12635;50.852;5.676;2023-04-12T04:57:46;8.10;99.90
24470;DHT22;12635;50.852;5.676;2023-04-12T05:00:13;8.10;99.90
24470;DHT22;12635;50.852;5.676;2023-04-12T05:02:41;8.10;99.90
24470;DHT22;12635;50.852;5.676;2023-04-12T05:05:09;8.10;99.90
24470;DHT22;12635;50.852;5.676;2023-04-12T05:07:36;8.20;99.90
24470;DHT22;12635;50.852;5.676;2023-04-12T05:10:04;8.20;99.90
24470;DHT22;12635;50.852;5.676;2023-04-12T05:12:32;8.20;99.90
24470;DHT22;12635;50.852;5.676;2023-04-12T05:14:59;8.20;99.90
24470;DHT22;12635;50.852;5.676;2023-04-12T05:17:26;8.20;99.90
24470;DHT22;12635;50.852;5.676;2023-04-12T05:19:53;8.20;99.90
24470;DHT22;12635;50.852;5.676;2023-04-12T05:22:20;8.20;99.90
24470;DHT22;12635;50.852;5.676;2023-04-12T05:24:47;8.10;99.90
24470;DHT22;12635;50.852;5.676;2023-04-12T05:27:14;8.20;99.90
24470;DHT22;12635;50.852;5.676;2023-04-12T05:29:42;8.20;99.90
24470;DHT22;12635;50.852;5.676;2023-04-12T05:32:10;8.20;99.90
24470;DHT22;12635;50.852;5.676;2023-04-12T05:34:37;8.20;99.90
24470;DHT22;12635;50.852;5.676;2023-04-12T05:37:03;8.20;99.90
24470;DHT22;12635;50.852;5.676;2023-04-12T05:39:32;8.20;99.90
24470;DHT22;12635;50.852;5.676;2023-04-12T05:41:59;8.20;99.90
24470;DHT22;12635;50.852;5.676;2023-04-12T05:44:25;8.30;99.90
24470;DHT22;12635;50.852;5.676;2023-04-12T05:46:54;8.20;99.90
24470;DHT22;12635;50.852;5.676;2023-04-12T05:49:20;8.30;99.90
24470;DHT22;12635;50.852;5.676;2023-04-12T05:51:47;8.30;99.90
24470;DHT22;12635;50.852;5.676;2023-04-12T05:54:14;8.30;99.90
24470;DHT22;12635;50.852;5.676;2023-04-12T05:56:45;8.30;99.90
24470;DHT22;12635;50.852;5.676;2023-04-12T05:59:12;8.30;99.90
24470;DHT22;12635;50.852;5.676;2023-04-12T06:01:38;8.30;99.90
24470;DHT22;12635;50.852;5.676;2023-04-12T06:04:08;8.30;99.90
24470;DHT22;12635;50.852;5.676;2023-04-12T06:06:35;8.40;99.90
24470;DHT22;12635;50.852;5.676;2023-04-12T06:09:02;8.40;99.90
24470;DHT22;12635;50.852;5.676;2023-04-12T06:11:29;8.50;99.90
24470;DHT22;12635;50.852;5.676;2023-04-12T06:13:58;8.40;99.90
24470;DHT22;12635;50.852;5.676;2023-04-12T06:16:25;8.50;99.90
24470;DHT22;12635;50.852;5.676;2023-04-12T06:18:51;8.50;99.90
24470;DHT22;12635;50.852;5.676;2023-04-12T06:21:20;8.50;99.90
24470;DHT22;12635;50.852;5.676;2023-04-12T06:23:47;8.50;99.90
24470;DHT22;12635;50.852;5.676;2023-04-12T06:26:13;8.50;99.90
24470;DHT22;12635;50.852;5.676;2023-04-12T06:28:40;8.60;99.90
24470;DHT22;12635;50.852;5.676;2023-04-12T06:31:08;8.60;99.90
24470;DHT22;12635;50.852;5.676;2023-04-12T06:33:35;8.60;99.90
24470;DHT22;12635;50.852;5.676;2023-04-12T06:36:02;8.60;99.90
24470;DHT22;12635;50.852;5.676;2023-04-12T06:38:30;8.60;99.90
24470;DHT22;12635;50.852;5.676;2023-04-12T06:40:57;8.60;99.90
24470;DHT22;12635;50.852;5.676;2023-04-12T06:43:24;8.70;99.90
24470;DHT22;12635;50.852;5.676;2023-04-12T06:45:51;8.60;99.90
24470;DHT22;12635;50.852;5.676;2023-04-12T06:48:17;8.70;99.90
24470;DHT22;12635;50.852;5.676;2023-04-12T06:50:44;8.70;99.90
24470;DHT22;12635;50.852;5.676;2023-04-12T06:53:11;8.80;99.90
24470;DHT22;12635;50.852;5.676;2023-04-12T06:55:40;8.80;99.90
24470;DHT22;12635;50.852;5.676;2023-04-12T06:58:07;8.80;99.90
24470;DHT22;12635;50.852;5.676;2023-04-12T07:00:34;8.80;99.90
24470;DHT22;12635;50.852;5.676;2023-04-12T07:03:02;8.90;99.90
24470;DHT22;12635;50.852;5.676;2023-04-12T07:05:28;8.90;99.90
24470;DHT22;12635;50.852;5.676;2023-04-12T07:07:55;8.90;99.90
24470;DHT22;12635;50.852;5.676;2023-04-12T07:10:22;8.90;99.90
24470;DHT22;12635;50.852;5.676;2023-04-12T07:12:50;8.90;99.90
24470;DHT22;12635;50.852;5.676;2023-04-12T07:15:17;8.90;99.90
24470;DHT22;12635;50.852;5.676;2023-04-12T07:17:44;8.90;99.90
24470;DHT22;12635;50.852;5.676;2023-04-12T07:20:11;8.90;99.90
24470;DHT22;12635;50.852;5.676;2023-04-12T07:22:38;8.90;99.90
24470;DHT22;12635;50.852;5.676;2023-04-12T07:25:05;8.90;99.90
24470;DHT22;12635;50.852;5.676;2023-04-12T07:27:34;8.90;99.90
24470;DHT22;12635;50.852;5.676;2023-04-12T07:30:03;8.90;99.90
24470;DHT22;12635;50.852;5.676;2023-04-12T07:32:30;8.90;99.90
24470;DHT22;12635;50.852;5.676;2023-04-12T07:34:57;8.90;99.90
24470;DHT22;12635;50.852;5.676;2023-04-12T07:37:24;9.00;99.90
24470;DHT22;12635;50.852;5.676;2023-04-12T07:39:51;9.00;99.90
24470;DHT22;12635;50.852;5.676;2023-04-12T07:42:17;9.00;99.90
24470;DHT22;12635;50.852;5.676;2023-04-12T07:44:44;9.00;99.90
24470;DHT22;12635;50.852;5.676;2023-04-12T07:47:13;9.00;99.90
24470;DHT22;12635;50.852;5.676;2023-04-12T07:49:40;9.00;99.90
24470;DHT22;12635;50.852;5.676;2023-04-12T07:52:06;9.00;99.90
24470;DHT22;12635;50.852;5.676;2023-04-12T07:54:33;9.00;99.90
24470;DHT22;12635;50.852;5.676;2023-04-12T07:57:00;9.00;99.90
24470;DHT22;12635;50.852;5.676;2023-04-12T07:59:28;9.00;99.90
24470;DHT22;12635;50.852;5.676;2023-04-12T08:01:55;9.00;99.90
24470;DHT22;12635;50.852;5.676;2023-04-12T08:04:23;9.00;99.90
24470;DHT22;12635;50.852;5.676;2023-04-12T08:06:52;9.00;99.90
24470;DHT22;12635;50.852;5.676;2023-04-12T08:09:19;8.90;99.90
24470;DHT22;12635;50.852;5.676;2023-04-12T08:11:46;8.80;99.90
24470;DHT22;12635;50.852;5.676;2023-04-12T08:14:13;8.70;99.90
24470;DHT22;12635;50.852;5.676;2023-04-12T08:16:39;8.60;99.90
24470;DHT22;12635;50.852;5.676;2023-04-12T08:19:06;8.70;99.90
24470;DHT22;12635;50.852;5.676;2023-04-12T08:21:35;8.80;99.90
24470;DHT22;12635;50.852;5.676;2023-04-12T08:24:01;8.90;99.90
24470;DHT22;12635;50.852;5.676;2023-04-12T08:26:28;9.00;99.90
24470;DHT22;12635;50.852;5.676;2023-04-12T08:28:56;9.30;99.90
24470;DHT22;12635;50.852;5.676;2023-04-12T08:31:23;9.40;99.90
24470;DHT22;12635;50.852;5.676;2023-04-12T08:33:50;9.70;99.90
24470;DHT22;12635;50.852;5.676;2023-04-12T08:36:16;9.80;99.90
24470;DHT22;12635;50.852;5.676;2023-04-12T08:38:45;10.20;99.90
24470;DHT22;12635;50.852;5.676;2023-04-12T08:41:17;9.90;99.90
24470;DHT22;12635;50.852;5.676;2023-04-12T08:43:44;9.80;99.90
24470;DHT22;12635;50.852;5.676;2023-04-12T08:46:12;10.10;99.90
24470;DHT22;12635;50.852;5.676;2023-04-12T08:48:41;10.20;99.90
24470;DHT22;12635;50.852;5.676;2023-04-12T08:51:10;10.20;99.90
24470;DHT22;12635;50.852;5.676;2023-04-12T08:53:38;10.30;99.90
24470;DHT22;12635;50.852;5.676;2023-04-12T08:56:07;10.30;99.90
24470;DHT22;12635;50.852;5.676;2023-04-12T08:58:35;10.50;99.90
24470;DHT22;12635;50.852;5.676;2023-04-12T09:01:03;10.30;99.90
24470;DHT22;12635;50.852;5.676;2023-04-12T09:03:33;10.10;99.90
24470;DHT22;12635;50.852;5.676;2023-04-12T09:06:01;10.10;99.90
24470;DHT22;12635;50.852;5.676;2023-04-12T09:08:28;10.40;99.90
24470;DHT22;12635;50.852;5.676;2023-04-12T09:10:55;10.90;99.90
24470;DHT22;12635;50.852;5.676;2023-04-12T09:13:31;10.80;99.90
24470;DHT22;12635;50.852;5.676;2023-04-12T09:15:59;10.90;99.90
24470;DHT22;12635;50.852;5.676;2023-04-12T09:18:25;10.80;99.90
24470;DHT22;12635;50.852;5.676;2023-04-12T09:21:04;10.40;99.90
24470;DHT22;12635;50.852;5.676;2023-04-12T09:23:31;9.90;99.90
24470;DHT22;12635;50.852;5.676;2023-04-12T09:26:00;9.70;99.90
24470;DHT22;12635;50.852;5.676;2023-04-12T09:28:28;9.70;99.90
24470;DHT22;12635;50.852;5.676;2023-04-12T09:30:57;9.70;99.90
24470;DHT22;12635;50.852;5.676;2023-04-12T09:33:31;9.70;99.90
24470;DHT22;12635;50.852;5.676;2023-04-12T09:35:58;9.90;99.90
24470;DHT22;12635;50.852;5.676;2023-04-12T09:38:25;10.00;99.90
24470;DHT22;12635;50.852;5.676;2023-04-12T09:40:52;10.30;99.90
24470;DHT22;12635;50.852;5.676;2023-04-12T09:43:34;10.70;99.90
24470;DHT22;12635;50.852;5.676;2023-04-12T09:46:07;11.30;99.90
24470;DHT22;12635;50.852;5.676;2023-04-12T09:48:35;12.10;99.90
24470;DHT22;12635;50.852;5.676;2023-04-12T09:51:03;12.40;99.90
24470;DHT22;12635;50.852;5.676;2023-04-12T09:53:30;12.50;99.90
24470;DHT22;12635;50.852;5.676;2023-04-12T09:55:58;12.40;99.90
24470;DHT22;12635;50.852;5.676;2023-04-12T09:58:27;12.40;99.90
24470;DHT22;12635;50.852;5.676;2023-04-12T10:00:54;12.60;99.90
24470;DHT22;12635;50.852;5.676;2023-04-12T10:03:23;12.80;99.90
24470;DHT22;12635;50.852;5.676;2023-04-12T10:05:51;13.50;99.90
24470;DHT22;12635;50.852;5.676;2023-04-12T10:08:18;14.30;99.90
24470;DHT22;12635;50.852;5.676;2023-04-12T10:10:45;14.50;99.90
24470;DHT22;12635;50.852;5.676;2023-04-12T10:13:12;14.70;99.90
24470;DHT22;12635;50.852;5.676;2023-04-12T10:15:39;15.40;99.90
24470;DHT22;12635;50.852;5.676;2023-04-12T10:18:06;15.50;99.90
24470;DHT22;12635;50.852;5.676;2023-04-12T10:20:37;15.40;99.90
24470;DHT22;12635;50.852;5.676;2023-04-12T10:23:05;15.20;99.90
24470;DHT22;12635;50.852;5.676;2023-04-12T10:25:32;15.40;99.90
24470;DHT22;12635;50.852;5.676;2023-04-12T10:28:12;15.30;99.90
24470;DHT22;12635;50.852;5.676;2023-04-12T10:30:39;15.60;99.90
24470;DHT22;12635;50.852;5.676;2023-04-12T10:33:13;16.50;99.90
24470;DHT22;12635;50.852;5.676;2023-04-12T10:38:26;14.80;99.90
24470;DHT22;12635;50.852;5.676;2023-04-12T10:41:06;14.50;99.90
24470;DHT22;12635;50.852;5.676;2023-04-12T10:43:33;14.00;99.90
24470;DHT22;12635;50.852;5.676;2023-04-12T10:46:00;13.40;99.90
24470;DHT22;12635;50.852;5.676;2023-04-12T10:48:30;13.10;99.90
24470;DHT22;12635;50.852;5.676;2023-04-12T10:51:15;12.60;99.90
24470;DHT22;12635;50.852;5.676;2023-04-12T10:53:49;12.60;99.90
24470;DHT22;12635;50.852;5.676;2023-04-12T10:58:58;12.70;99.90
24470;DHT22;12635;50.852;5.676;2023-04-12T11:01:25;12.90;99.90
24470;DHT22;12635;50.852;5.676;2023-04-12T11:04:05;12.60;99.90
24470;DHT22;12635;50.852;5.676;2023-04-12T11:06:41;12.90;99.90
24470;DHT22;12635;50.852;5.676;2023-04-12T11:09:17;13.10;99.90
24470;DHT22;12635;50.852;5.676;2023-04-12T11:11:44;13.20;99.90
24470;DHT22;12635;50.852;5.676;2023-04-12T11:14:11;13.40;99.90
24470;DHT22;12635;50.852;5.676;2023-04-12T11:19:29;13.20;99.90
24470;DHT22;12635;50.852;5.676;2023-04-12T11:21:56;13.50;99.90
24470;DHT22;12635;50.852;5.676;2023-04-12T11:24:25;13.20;99.90
24470;DHT22;12635;50.852;5.676;2023-04-12T11:26:52;12.80;99.90
24470;DHT22;12635;50.852;5.676;2023-04-12T11:29:22;12.60;99.90
24470;DHT22;12635;50.852;5.676;2023-04-12T11:31:48;12.30;99.90
24470;DHT22;12635;50.852;5.676;2023-04-12T11:34:16;12.30;99.90
24470;DHT22;12635;50.852;5.676;2023-04-12T11:36:43;12.30;99.90
24470;DHT22;12635;50.852;5.676;2023-04-12T11:39:10;12.30;99.90
24470;DHT22;12635;50.852;5.676;2023-04-12T11:41:43;12.30;99.90
24470;DHT22;12635;50.852;5.676;2023-04-12T11:44:11;12.20;99.90
24470;DHT22;12635;50.852;5.676;2023-04-12T11:46:38;11.90;99.90
24470;DHT22;12635;50.852;5.676;2023-04-12T11:49:05;11.70;99.90
24470;DHT22;12635;50.852;5.676;2023-04-12T11:51:32;11.80;99.90
24470;DHT22;12635;50.852;5.676;2023-04-12T11:54:00;12.00;99.90
24470;DHT22;12635;50.852;5.676;2023-04-12T11:56:27;12.40;99.90
24470;DHT22;12635;50.852;5.676;2023-04-12T11:58:55;12.80;99.90
24470;DHT22;12635;50.852;5.676;2023-04-12T12:01:22;13.40;99.90
24470;DHT22;12635;50.852;5.676;2023-04-12T12:03:49;14.70;99.90
24470;DHT22;12635;50.852;5.676;2023-04-12T12:06:17;15.10;99.90
24470;DHT22;12635;50.852;5.676;2023-04-12T12:08:44;14.70;99.90
24470;DHT22;12635;50.852;5.676;2023-04-12T12:11:11;14.20;99.90
24470;DHT22;12635;50.852;5.676;2023-04-12T12:13:44;14.50;99.90
24470;DHT22;12635;50.852;5.676;2023-04-12T12:16:13;14.30;99.90
24470;DHT22;12635;50.852;5.676;2023-04-12T12:18:40;13.10;99.90
24470;DHT22;12635;50.852;5.676;2023-04-12T12:21:07;11.90;99.90
24470;DHT22;12635;50.852;5.676;2023-04-12T12:23:35;10.90;99.90
24470;DHT22;12635;50.852;5.676;2023-04-12T12:26:02;10.70;99.90
24470;DHT22;12635;50.852;5.676;2023-04-12T12:28:31;10.80;99.90
24470;DHT22;12635;50.852;5.676;2023-04-12T12:31:01;10.80;99.90
24470;DHT22;12635;50.852;5.676;2023-04-12T12:33:36;10.90;99.90
24470;DHT22;12635;50.852;5.676;2023-04-12T12:36:04;11.00;99.90
24470;DHT22;12635;50.852;5.676;2023-04-12T12:38:33;11.00;99.90
24470;DHT22;12635;50.852;5.676;2023-04-12T12:41:12;10.90;99.90
24470;DHT22;12635;50.852;5.676;2023-04-12T12:43:42;10.90;99.90
24470;DHT22;12635;50.852;5.676;2023-04-12T12:46:09;10.90;99.90
24470;DHT22;12635;50.852;5.676;2023-04-12T12:48:39;11.00;99.90
24470;DHT22;12635;50.852;5.676;2023-04-12T12:51:06;11.10;99.90
24470;DHT22;12635;50.852;5.676;2023-04-12T12:53:33;11.40;99.90
24470;DHT22;12635;50.852;5.676;2023-04-12T12:56:00;12.30;99.90
24470;DHT22;12635;50.852;5.676;2023-04-12T12:58:27;12.80;99.90
24470;DHT22;12635;50.852;5.676;2023-04-12T13:00:54;13.80;99.90
24470;DHT22;12635;50.852;5.676;2023-04-12T13:03:21;14.20;99.90
24470;DHT22;12635;50.852;5.676;2023-04-12T13:05:50;13.50;99.90
24470;DHT22;12635;50.852;5.676;2023-04-12T13:08:16;13.30;99.90
24470;DHT22;12635;50.852;5.676;2023-04-12T13:10:43;12.60;99.90
24470;DHT22;12635;50.852;5.676;2023-04-12T13:13:10;12.20;99.90
24470;DHT22;12635;50.852;5.676;2023-04-12T13:15:37;11.80;99.90
24470;DHT22;12635;50.852;5.676;2023-04-12T13:18:04;11.00;99.90
24470;DHT22;12635;50.852;5.676;2023-04-12T13:20:31;10.40;99.90
24470;DHT22;12635;50.852;5.676;2023-04-12T13:23:00;10.50;99.90
24470;DHT22;12635;50.852;5.676;2023-04-12T13:25:27;11.70;99.90
24470;DHT22;12635;50.852;5.676;2023-04-12T13:27:53;12.80;99.90
24470;DHT22;12635;50.852;5.676;2023-04-12T13:30:20;13.20;99.90
24470;DHT22;12635;50.852;5.676;2023-04-12T13:32:47;13.10;99.90
24470;DHT22;12635;50.852;5.676;2023-04-12T13:35:14;13.50;99.90
24470;DHT22;12635;50.852;5.676;2023-04-12T13:37:41;13.40;99.90
24470;DHT22;12635;50.852;5.676;2023-04-12T13:40:10;12.90;99.90
24470;DHT22;12635;50.852;5.676;2023-04-12T13:42:37;12.60;99.90
24470;DHT22;12635;50.852;5.676;2023-04-12T13:45:04;12.30;99.90
24470;DHT22;12635;50.852;5.676;2023-04-12T13:47:32;11.90;99.90
24470;DHT22;12635;50.852;5.676;2023-04-12T13:49:59;11.30;99.90
24470;DHT22;12635;50.852;5.676;2023-04-12T13:52:26;11.00;99.90
24470;DHT22;12635;50.852;5.676;2023-04-12T13:54:53;11.10;99.90
24470;DHT22;12635;50.852;5.676;2023-04-12T13:57:22;12.10;99.90
24470;DHT22;12635;50.852;5.676;2023-04-12T13:59:49;13.30;99.90
24470;DHT22;12635;50.852;5.676;2023-04-12T14:02:16;14.50;99.90
24470;DHT22;12635;50.852;5.676;2023-04-12T14:04:48;14.10;99.90
24470;DHT22;12635;50.852;5.676;2023-04-12T14:07:15;12.70;99.90
24470;DHT22;12635;50.852;5.676;2023-04-12T14:09:42;11.70;99.90
24470;DHT22;12635;50.852;5.676;2023-04-12T14:12:09;11.20;99.90
24470;DHT22;12635;50.852;5.676;2023-04-12T14:14:38;11.40;99.90
24470;DHT22;12635;50.852;5.676;2023-04-12T14:17:04;12.10;99.90
24470;DHT22;12635;50.852;5.676;2023-04-12T14:19:31;12.60;99.90
24470;DHT22;12635;50.852;5.676;2023-04-12T14:21:58;12.60;99.90
24470;DHT22;12635;50.852;5.676;2023-04-12T14:24:26;12.20;99.90
24470;DHT22;12635;50.852;5.676;2023-04-12T14:26:53;13.10;99.90
24470;DHT22;12635;50.852;5.676;2023-04-12T14:29:21;13.50;99.90
24470;DHT22;12635;50.852;5.676;2023-04-12T14:31:50;13.50;99.90
24470;DHT22;12635;50.852;5.676;2023-04-12T14:34:16;12.80;99.90
24470;DHT22;12635;50.852;5.676;2023-04-12T14:36:43;12.00;99.90
24470;DHT22;12635;50.852;5.676;2023-04-12T14:39:10;11.50;99.90
24470;DHT22;12635;50.852;5.676;2023-04-12T14:41:37;11.10;99.90
24470;DHT22;12635;50.852;5.676;2023-04-12T14:44:04;11.10;99.90
24470;DHT22;12635;50.852;5.676;2023-04-12T14:46:31;10.80;99.90
24470;DHT22;12635;50.852;5.676;2023-04-12T14:48:59;10.70;99.90
24470;DHT22;12635;50.852;5.676;2023-04-12T14:51:26;10.40;99.90
24470;DHT22;12635;50.852;5.676;2023-04-12T14:53:53;10.00;99.90
24470;DHT22;12635;50.852;5.676;2023-04-12T14:56:20;9.40;99.90
24470;DHT22;12635;50.852;5.676;2023-04-12T14:58:49;9.20;99.90
24470;DHT22;12635;50.852;5.676;2023-04-12T15:01:19;9.30;99.90
24470;DHT22;12635;50.852;5.676;2023-04-12T15:03:46;9.50;99.90
24470;DHT22;12635;50.852;5.676;2023-04-12T15:06:14;9.70;99.90
24470;DHT22;12635;50.852;5.676;2023-04-12T15:08:41;9.80;99.90
24470;DHT22;12635;50.852;5.676;2023-04-12T15:11:08;10.00;99.90
24470;DHT22;12635;50.852;5.676;2023-04-12T15:13:35;10.10;99.90
24470;DHT22;12635;50.852;5.676;2023-04-12T15:16:04;10.50;99.90
24470;DHT22;12635;50.852;5.676;2023-04-12T15:18:33;11.70;99.90
24470;DHT22;12635;50.852;5.676;2023-04-12T15:21:03;12.10;99.90
24470;DHT22;12635;50.852;5.676;2023-04-12T15:23:32;12.70;99.90
24470;DHT22;12635;50.852;5.676;2023-04-12T15:25:58;12.30;99.90
24470;DHT22;12635;50.852;5.676;2023-04-12T15:28:26;12.30;99.90
24470;DHT22;12635;50.852;5.676;2023-04-12T15:30:53;13.50;99.90
24470;DHT22;12635;50.852;5.676;2023-04-12T15:33:20;13.80;99.90
24470;DHT22;12635;50.852;5.676;2023-04-12T15:35:47;13.70;99.90
24470;DHT22;12635;50.852;5.676;2023-04-12T15:38:14;13.90;99.90
24470;DHT22;12635;50.852;5.676;2023-04-12T15:40:43;13.40;99.90
24470;DHT22;12635;50.852;5.676;2023-04-12T15:43:10;13.10;99.90
24470;DHT22;12635;50.852;5.676;2023-04-12T15:45:38;13.20;99.90
24470;DHT22;12635;50.852;5.676;2023-04-12T15:48:05;13.50;99.90
24470;DHT22;12635;50.852;5.676;2023-04-12T15:50:32;13.40;99.90
24470;DHT22;12635;50.852;5.676;2023-04-12T15:52:59;13.50;99.90